sensor_id;sensor_type;location;lat;lon;timestamp;P1;durP1;ratioP1;P2;durP2;ratioP2
20713;SDS011;10518;50.742;4.226;2022-10-16T00:00:36;0.55;;;0.55;;
20713;SDS011;10518;50.742;4.226;2022-10-16T00:03:04;0.63;;;0.40;;
20713;SDS011;10518;50.742;4.226;2022-10-16T00:05:30;0.63;;;0.63;;
20713;SDS011;10518;50.742;4.226;2022-10-16T00:07:56;0.50;;;0.50;;
20713;SDS011;10518;50.742;4.226;2022-10-16T00:10:22;0.50;;;0.50;;
20713;SDS011;10518;50.742;4.226;2022-10-16T00:12:48;0.73;;;0.47;;
20713;SDS011;10518;50.742;4.226;2022-10-16T00:15:14;3.50;;;0.50;;
20713;SDS011;10518;50.742;4.226;2022-10-16T00:17:40;0.52;;;0.52;;
20713;SDS011;10518;50.742;4.226;2022-10-16T00:20:05;0.85;;;0.85;;
20713;SDS011;10518;50.742;4.226;2022-10-16T00:22:32;0.57;;;0.55;;
20713;SDS011;10518;50.742;4.226;2022-10-16T00:24:58;0.73;;;0.50;;
20713;SDS011;10518;50.742;4.226;2022-10-16T00:27:23;0.73;;;0.60;;
20713;SDS011;10518;50.742;4.226;2022-10-16T00:29:49;0.68;;;0.52;;
20713;SDS011;10518;50.742;4.226;2022-10-16T00:32:16;0.75;;;0.60;;
20713;SDS011;10518;50.742;4.226;2022-10-16T00:34:42;0.60;;;0.60;;
20713;SDS011;10518;50.742;4.226;2022-10-16T00:37:08;0.73;;;0.50;;
20713;SDS011;10518;50.742;4.226;2022-10-16T00:39:33;0.60;;;0.52;;
20713;SDS011;10518;50.742;4.226;2022-10-16T00:41:59;0.65;;;0.50;;
20713;SDS011;10518;50.742;4.226;2022-10-16T00:47:17;0.50;;;0.50;;
20713;SDS011;10518;50.742;4.226;2022-10-16T00:49:50;0.40;;;0.40;;
20713;SDS011;10518;50.742;4.226;2022-10-16T00:52:18;0.57;;;0.57;;
20713;SDS011;10518;50.742;4.226;2022-10-16T00:54:44;0.68;;;0.68;;
20713;SDS011;10518;50.742;4.226;2022-10-16T00:57:12;0.80;;;0.60;;
20713;SDS011;10518;50.742;4.226;2022-10-16T00:59:38;0.68;;;0.68;;
20713;SDS011;10518;50.742;4.226;2022-10-16T01:02:06;0.88;;;0.77;;
20713;SDS011;10518;50.742;4.226;2022-10-16T01:04:35;0.75;;;0.60;;
20713;SDS011;10518;50.742;4.226;2022-10-16T01:09:55;0.60;;;0.60;;
20713;SDS011;10518;50.742;4.226;2022-10-16T01:12:42;1.88;;;0.80;;
20713;SDS011;10518;50.742;4.226;2022-10-16T01:17:41;0.60;;;0.60;;
20713;SDS011;10518;50.742;4.226;2022-10-16T01:28:12;1.05;;;0.60;;
20713;SDS011;10518;50.742;4.226;2022-10-16T01:30:39;0.90;;;0.77;;
20713;SDS011;10518;50.742;4.226;2022-10-16T01:35:54;0.50;;;0.50;;
20713;SDS011;10518;50.742;4.226;2022-10-16T01:38:34;1.13;;;1.02;;
20713;SDS011;10518;50.742;4.226;2022-10-16T01:41:15;1.23;;;0.70;;
20713;SDS011;10518;50.742;4.226;2022-10-16T01:43:51;0.60;;;0.60;;
20713;SDS011;10518;50.742;4.226;2022-10-16T01:46:30;0.70;;;0.70;;
20713;SDS011;10518;50.742;4.226;2022-10-16T01:48:57;1.63;;;0.80;;
20713;SDS011;10518;50.742;4.226;2022-10-16T01:51:26;0.73;;;0.73;;
20713;SDS011;10518;50.742;4.226;2022-10-16T01:53:54;1.05;;;0.80;;
20713;SDS011;10518;50.742;4.226;2022-10-16T01:56:23;1.80;;;0.70;;
20713;SDS011;10518;50.742;4.226;2022-10-16T01:58:54;0.65;;;0.65;;
20713;SDS011;10518;50.742;4.226;2022-10-16T02:01:24;0.80;;;0.80;;
20713;SDS011;10518;50.742;4.226;2022-10-16T02:03:54;0.60;;;0.60;;
20713;SDS011;10518;50.742;4.226;2022-10-16T02:06:23;0.75;;;0.75;;
20713;SDS011;10518;50.742;4.226;2022-10-16T02:08:49;0.82;;;0.82;;
20713;SDS011;10518;50.742;4.226;2022-10-16T02:11:15;1.00;;;0.77;;
20713;SDS011;10518;50.742;4.226;2022-10-16T02:13:45;1.48;;;0.85;;
20713;SDS011;10518;50.742;4.226;2022-10-16T02:16:15;0.73;;;0.63;;
20713;SDS011;10518;50.742;4.226;2022-10-16T02:18:41;0.68;;;0.68;;
20713;SDS011;10518;50.742;4.226;2022-10-16T02:23:55;1.52;;;0.80;;
20713;SDS011;10518;50.742;4.226;2022-10-16T02:26:31;0.70;;;0.70;;
20713;SDS011;10518;50.742;4.226;2022-10-16T02:29:03;1.00;;;0.70;;
20713;SDS011;10518;50.742;4.226;2022-10-16T02:31:34;1.95;;;0.80;;
20713;SDS011;10518;50.742;4.226;2022-10-16T02:34:02;2.33;;;0.98;;
20713;SDS011;10518;50.742;4.226;2022-10-16T02:36:30;2.08;;;0.95;;
20713;SDS011;10518;50.742;4.226;2022-10-16T02:38:56;0.77;;;0.73;;
20713;SDS011;10518;50.742;4.226;2022-10-16T02:41:24;0.90;;;0.77;;
20713;SDS011;10518;50.742;4.226;2022-10-16T02:43:49;1.35;;;0.90;;
20713;SDS011;10518;50.742;4.226;2022-10-16T02:46:15;2.17;;;0.82;;
20713;SDS011;10518;50.742;4.226;2022-10-16T02:48:42;1.25;;;0.82;;
20713;SDS011;10518;50.742;4.226;2022-10-16T02:51:08;0.70;;;0.70;;
20713;SDS011;10518;50.742;4.226;2022-10-16T02:53:33;1.10;;;1.08;;
20713;SDS011;10518;50.742;4.226;2022-10-16T02:55:59;1.00;;;0.85;;
20713;SDS011;10518;50.742;4.226;2022-10-16T02:58:24;1.75;;;1.10;;
20713;SDS011;10518;50.742;4.226;2022-10-16T03:00:50;1.30;;;1.10;;
20713;SDS011;10518;50.742;4.226;2022-10-16T03:03:15;1.10;;;1.00;;
20713;SDS011;10518;50.742;4.226;2022-10-16T03:05:42;0.88;;;0.88;;
20713;SDS011;10518;50.742;4.226;2022-10-16T03:08:10;1.67;;;0.95;;
20713;SDS011;10518;50.742;4.226;2022-10-16T03:10:36;0.88;;;0.88;;
20713;SDS011;10518;50.742;4.226;2022-10-16T03:13:01;14.30;;;1.85;;
20713;SDS011;10518;50.742;4.226;2022-10-16T03:15:27;1.48;;;0.90;;
20713;SDS011;10518;50.742;4.226;2022-10-16T03:17:53;1.08;;;0.98;;
20713;SDS011;10518;50.742;4.226;2022-10-16T03:20:19;2.67;;;1.15;;
20713;SDS011;10518;50.742;4.226;2022-10-16T03:22:45;1.65;;;0.90;;
20713;SDS011;10518;50.742;4.226;2022-10-16T03:25:10;2.70;;;1.35;;
20713;SDS011;10518;50.742;4.226;2022-10-16T03:27:36;1.38;;;0.90;;
20713;SDS011;10518;50.742;4.226;2022-10-16T03:30:02;1.35;;;1.00;;
20713;SDS011;10518;50.742;4.226;2022-10-16T03:32:27;0.93;;;0.93;;
20713;SDS011;10518;50.742;4.226;2022-10-16T03:34:53;3.17;;;0.90;;
20713;SDS011;10518;50.742;4.226;2022-10-16T03:37:19;0.90;;;0.60;;
20713;SDS011;10518;50.742;4.226;2022-10-16T03:39:45;1.05;;;0.85;;
20713;SDS011;10518;50.742;4.226;2022-10-16T03:42:11;2.15;;;1.10;;
20713;SDS011;10518;50.742;4.226;2022-10-16T03:44:37;1.20;;;1.00;;
20713;SDS011;10518;50.742;4.226;2022-10-16T03:47:03;2.60;;;1.25;;
20713;SDS011;10518;50.742;4.226;2022-10-16T03:49:28;8.15;;;1.20;;
20713;SDS011;10518;50.742;4.226;2022-10-16T03:51:54;1.13;;;0.98;;
20713;SDS011;10518;50.742;4.226;2022-10-16T03:54:20;1.83;;;1.20;;
20713;SDS011;10518;50.742;4.226;2022-10-16T03:56:47;2.95;;;1.00;;
20713;SDS011;10518;50.742;4.226;2022-10-16T03:59:12;1.15;;;0.77;;
20713;SDS011;10518;50.742;4.226;2022-10-16T04:01:38;1.10;;;0.80;;
20713;SDS011;10518;50.742;4.226;2022-10-16T04:04:04;1.15;;;1.00;;
20713;SDS011;10518;50.742;4.226;2022-10-16T04:06:29;2.10;;;1.10;;
20713;SDS011;10518;50.742;4.226;2022-10-16T04:08:55;0.80;;;0.80;;
20713;SDS011;10518;50.742;4.226;2022-10-16T04:11:21;1.10;;;0.95;;
20713;SDS011;10518;50.742;4.226;2022-10-16T04:13:46;0.80;;;0.80;;
20713;SDS011;10518;50.742;4.226;2022-10-16T04:16:12;1.05;;;0.90;;
20713;SDS011;10518;50.742;4.226;2022-10-16T04:18:38;2.13;;;1.00;;
20713;SDS011;10518;50.742;4.226;2022-10-16T04:21:04;1.20;;;0.90;;
20713;SDS011;10518;50.742;4.226;2022-10-16T04:23:31;0.73;;;0.73;;
20713;SDS011;10518;50.742;4.226;2022-10-16T04:25:57;2.08;;;0.80;;
20713;SDS011;10518;50.742;4.226;2022-10-16T04:28:22;1.13;;;0.80;;
20713;SDS011;10518;50.742;4.226;2022-10-16T04:30:48;1.38;;;0.80;;
20713;SDS011;10518;50.742;4.226;2022-10-16T04:33:14;1.75;;;1.23;;
20713;SDS011;10518;50.742;4.226;2022-10-16T04:35:39;1.30;;;0.95;;
20713;SDS011;10518;50.742;4.226;2022-10-16T04:38:05;1.15;;;0.90;;
20713;SDS011;10518;50.742;4.226;2022-10-16T04:40:30;0.80;;;0.80;;
20713;SDS011;10518;50.742;4.226;2022-10-16T04:43:01;3.22;;;1.13;;
20713;SDS011;10518;50.742;4.226;2022-10-16T04:45:27;0.73;;;0.73;;
20713;SDS011;10518;50.742;4.226;2022-10-16T04:47:56;1.10;;;1.00;;
20713;SDS011;10518;50.742;4.226;2022-10-16T04:50:22;1.55;;;0.90;;
20713;SDS011;10518;50.742;4.226;2022-10-16T04:52:47;0.82;;;0.82;;
20713;SDS011;10518;50.742;4.226;2022-10-16T04:55:13;0.77;;;0.70;;
20713;SDS011;10518;50.742;4.226;2022-10-16T04:57:39;1.15;;;0.90;;
20713;SDS011;10518;50.742;4.226;2022-10-16T05:00:05;0.70;;;0.70;;
20713;SDS011;10518;50.742;4.226;2022-10-16T05:02:31;1.08;;;0.95;;
20713;SDS011;10518;50.742;4.226;2022-10-16T05:04:56;1.35;;;1.08;;
20713;SDS011;10518;50.742;4.226;2022-10-16T05:07:22;0.82;;;0.82;;
20713;SDS011;10518;50.742;4.226;2022-10-16T05:09:47;1.30;;;0.90;;
20713;SDS011;10518;50.742;4.226;2022-10-16T05:12:13;1.83;;;1.05;;
20713;SDS011;10518;50.742;4.226;2022-10-16T05:14:38;1.25;;;0.90;;
20713;SDS011;10518;50.742;4.226;2022-10-16T05:17:04;1.67;;;1.10;;
20713;SDS011;10518;50.742;4.226;2022-10-16T05:19:29;0.85;;;0.80;;
20713;SDS011;10518;50.742;4.226;2022-10-16T05:21:55;0.93;;;0.80;;
20713;SDS011;10518;50.742;4.226;2022-10-16T05:24:21;1.55;;;0.90;;
20713;SDS011;10518;50.742;4.226;2022-10-16T05:26:46;1.00;;;1.00;;
20713;SDS011;10518;50.742;4.226;2022-10-16T05:29:12;0.80;;;0.80;;
20713;SDS011;10518;50.742;4.226;2022-10-16T05:31:38;0.93;;;0.93;;
20713;SDS011;10518;50.742;4.226;2022-10-16T05:34:03;1.30;;;0.80;;
20713;SDS011;10518;50.742;4.226;2022-10-16T05:36:29;1.00;;;1.00;;
20713;SDS011;10518;50.742;4.226;2022-10-16T05:38:54;1.67;;;0.90;;
20713;SDS011;10518;50.742;4.226;2022-10-16T05:41:20;4.35;;;1.17;;
20713;SDS011;10518;50.742;4.226;2022-10-16T05:43:49;1.77;;;1.15;;
20713;SDS011;10518;50.742;4.226;2022-10-16T05:46:15;1.13;;;1.02;;
20713;SDS011;10518;50.742;4.226;2022-10-16T05:48:41;1.48;;;0.80;;
20713;SDS011;10518;50.742;4.226;2022-10-16T05:51:07;3.05;;;1.63;;
20713;SDS011;10518;50.742;4.226;2022-10-16T05:53:36;1.30;;;1.13;;
20713;SDS011;10518;50.742;4.226;2022-10-16T05:56:03;1.05;;;1.02;;
20713;SDS011;10518;50.742;4.226;2022-10-16T05:58:31;2.35;;;1.00;;
20713;SDS011;10518;50.742;4.226;2022-10-16T06:01:02;1.77;;;1.13;;
20713;SDS011;10518;50.742;4.226;2022-10-16T06:03:29;1.00;;;0.85;;
20713;SDS011;10518;50.742;4.226;2022-10-16T06:05:55;2.53;;;1.20;;
20713;SDS011;10518;50.742;4.226;2022-10-16T06:08:21;1.20;;;1.05;;
20713;SDS011;10518;50.742;4.226;2022-10-16T06:10:48;1.27;;;0.98;;
20713;SDS011;10518;50.742;4.226;2022-10-16T06:13:24;1.25;;;0.93;;
20713;SDS011;10518;50.742;4.226;2022-10-16T06:15:50;3.08;;;1.77;;
20713;SDS011;10518;50.742;4.226;2022-10-16T06:18:15;1.60;;;1.17;;
20713;SDS011;10518;50.742;4.226;2022-10-16T06:20:41;2.08;;;1.13;;
20713;SDS011;10518;50.742;4.226;2022-10-16T06:23:06;1.55;;;1.05;;
20713;SDS011;10518;50.742;4.226;2022-10-16T06:25:32;1.20;;;1.10;;
20713;SDS011;10518;50.742;4.226;2022-10-16T06:27:58;1.23;;;1.00;;
20713;SDS011;10518;50.742;4.226;2022-10-16T06:30:24;4.10;;;1.67;;
20713;SDS011;10518;50.742;4.226;2022-10-16T06:32:49;1.27;;;1.10;;
20713;SDS011;10518;50.742;4.226;2022-10-16T06:35:15;3.88;;;1.20;;
20713;SDS011;10518;50.742;4.226;2022-10-16T06:37:40;1.40;;;1.20;;
20713;SDS011;10518;50.742;4.226;2022-10-16T06:40:06;2.75;;;1.30;;
20713;SDS011;10518;50.742;4.226;2022-10-16T06:42:32;2.67;;;1.10;;
20713;SDS011;10518;50.742;4.226;2022-10-16T06:44:57;2.20;;;1.05;;
20713;SDS011;10518;50.742;4.226;2022-10-16T06:47:23;2.03;;;1.23;;
20713;SDS011;10518;50.742;4.226;2022-10-16T06:49:49;1.55;;;1.10;;
20713;SDS011;10518;50.742;4.226;2022-10-16T06:52:14;1.60;;;0.93;;
20713;SDS011;10518;50.742;4.226;2022-10-16T06:54:40;2.15;;;1.38;;
20713;SDS011;10518;50.742;4.226;2022-10-16T06:57:05;2.00;;;1.10;;
20713;SDS011;10518;50.742;4.226;2022-10-16T06:59:31;1.52;;;1.40;;
20713;SDS011;10518;50.742;4.226;2022-10-16T07:01:56;2.38;;;1.20;;
20713;SDS011;10518;50.742;4.226;2022-10-16T07:04:22;1.05;;;0.95;;
20713;SDS011;10518;50.742;4.226;2022-10-16T07:06:47;1.05;;;0.95;;
20713;SDS011;10518;50.742;4.226;2022-10-16T07:09:13;1.27;;;0.95;;
20713;SDS011;10518;50.742;4.226;2022-10-16T07:11:38;1.00;;;0.80;;
20713;SDS011;10518;50.742;4.226;2022-10-16T07:14:05;0.80;;;0.80;;
20713;SDS011;10518;50.742;4.226;2022-10-16T07:16:38;2.30;;;1.10;;
20713;SDS011;10518;50.742;4.226;2022-10-16T07:19:04;3.22;;;1.20;;
20713;SDS011;10518;50.742;4.226;2022-10-16T07:21:30;1.05;;;0.73;;
20713;SDS011;10518;50.742;4.226;2022-10-16T07:24:00;1.63;;;1.10;;
20713;SDS011;10518;50.742;4.226;2022-10-16T07:26:27;1.08;;;1.00;;
20713;SDS011;10518;50.742;4.226;2022-10-16T07:28:57;1.23;;;1.10;;
20713;SDS011;10518;50.742;4.226;2022-10-16T07:31:23;0.98;;;0.90;;
20713;SDS011;10518;50.742;4.226;2022-10-16T07:33:49;1.40;;;1.05;;
20713;SDS011;10518;50.742;4.226;2022-10-16T07:36:17;1.25;;;1.00;;
20713;SDS011;10518;50.742;4.226;2022-10-16T07:38:43;0.93;;;0.70;;
20713;SDS011;10518;50.742;4.226;2022-10-16T07:41:13;0.80;;;0.80;;
20713;SDS011;10518;50.742;4.226;2022-10-16T07:43:40;2.72;;;0.90;;
20713;SDS011;10518;50.742;4.226;2022-10-16T07:46:14;1.98;;;1.17;;
20713;SDS011;10518;50.742;4.226;2022-10-16T07:48:41;1.13;;;0.95;;
20713;SDS011;10518;50.742;4.226;2022-10-16T07:51:10;4.10;;;0.80;;
20713;SDS011;10518;50.742;4.226;2022-10-16T07:53:36;1.30;;;1.20;;
20713;SDS011;10518;50.742;4.226;2022-10-16T07:56:04;2.25;;;1.00;;
20713;SDS011;10518;50.742;4.226;2022-10-16T07:58:31;2.13;;;1.20;;
20713;SDS011;10518;50.742;4.226;2022-10-16T08:00:59;1.08;;;0.85;;
20713;SDS011;10518;50.742;4.226;2022-10-16T08:03:29;1.45;;;0.90;;
20713;SDS011;10518;50.742;4.226;2022-10-16T08:05:56;2.08;;;0.70;;
20713;SDS011;10518;50.742;4.226;2022-10-16T08:08:22;3.28;;;0.90;;
20713;SDS011;10518;50.742;4.226;2022-10-16T08:10:47;0.82;;;0.80;;
20713;SDS011;10518;50.742;4.226;2022-10-16T08:13:13;1.17;;;0.77;;
20713;SDS011;10518;50.742;4.226;2022-10-16T08:15:40;1.35;;;1.02;;
20713;SDS011;10518;50.742;4.226;2022-10-16T08:18:06;0.82;;;0.65;;
20713;SDS011;10518;50.742;4.226;2022-10-16T08:20:32;1.40;;;0.90;;
20713;SDS011;10518;50.742;4.226;2022-10-16T08:22:58;1.42;;;0.90;;
20713;SDS011;10518;50.742;4.226;2022-10-16T08:25:25;2.47;;;0.93;;
20713;SDS011;10518;50.742;4.226;2022-10-16T08:27:50;1.67;;;1.02;;
20713;SDS011;10518;50.742;4.226;2022-10-16T08:30:17;0.80;;;0.63;;
20713;SDS011;10518;50.742;4.226;2022-10-16T08:32:43;0.88;;;0.77;;
20713;SDS011;10518;50.742;4.226;2022-10-16T08:35:09;0.90;;;0.70;;
20713;SDS011;10518;50.742;4.226;2022-10-16T08:37:36;1.00;;;0.65;;
20713;SDS011;10518;50.742;4.226;2022-10-16T08:40:02;3.17;;;0.90;;
20713;SDS011;10518;50.742;4.226;2022-10-16T08:42:31;1.75;;;0.80;;
20713;SDS011;10518;50.742;4.226;2022-10-16T08:45:44;0.73;;;0.60;;
20713;SDS011;10518;50.742;4.226;2022-10-16T08:51:07;0.63;;;0.63;;
20713;SDS011;10518;50.742;4.226;2022-10-16T08:53:44;0.75;;;0.60;;
20713;SDS011;10518;50.742;4.226;2022-10-16T08:56:30;1.40;;;0.82;;
20713;SDS011;10518;50.742;4.226;2022-10-16T08:58:57;1.38;;;0.88;;
20713;SDS011;10518;50.742;4.226;2022-10-16T09:01:24;1.00;;;0.70;;
20713;SDS011;10518;50.742;4.226;2022-10-16T09:07:01;2.08;;;0.93;;
20713;SDS011;10518;50.742;4.226;2022-10-16T09:20:22;1.58;;;0.85;;
20713;SDS011;10518;50.742;4.226;2022-10-16T09:25:37;0.73;;;0.60;;
20713;SDS011;10518;50.742;4.226;2022-10-16T09:28:04;0.60;;;0.60;;
20713;SDS011;10518;50.742;4.226;2022-10-16T09:30:30;2.17;;;0.68;;
20713;SDS011;10518;50.742;4.226;2022-10-16T09:32:57;3.05;;;1.00;;
20713;SDS011;10518;50.742;4.226;2022-10-16T09:35:43;1.30;;;0.80;;
20713;SDS011;10518;50.742;4.226;2022-10-16T09:38:25;3.47;;;0.65;;
20713;SDS011;10518;50.742;4.226;2022-10-16T09:40:55;1.02;;;0.70;;
20713;SDS011;10518;50.742;4.226;2022-10-16T09:48:54;1.65;;;0.63;;
20713;SDS011;10518;50.742;4.226;2022-10-16T09:53:57;1.83;;;0.80;;
20713;SDS011;10518;50.742;4.226;2022-10-16T09:56:37;2.08;;;0.73;;
20713;SDS011;10518;50.742;4.226;2022-10-16T09:59:13;0.93;;;0.55;;
20713;SDS011;10518;50.742;4.226;2022-10-16T10:01:40;1.33;;;0.60;;
20713;SDS011;10518;50.742;4.226;2022-10-16T10:04:09;3.67;;;0.80;;
20713;SDS011;10518;50.742;4.226;2022-10-16T10:06:36;0.75;;;0.57;;
20713;SDS011;10518;50.742;4.226;2022-10-16T10:09:15;1.85;;;0.90;;
20713;SDS011;10518;50.742;4.226;2022-10-16T10:11:50;0.60;;;0.60;;
20713;SDS011;10518;50.742;4.226;2022-10-16T10:14:27;5.72;;;0.98;;
20713;SDS011;10518;50.742;4.226;2022-10-16T10:17:45;1.23;;;0.40;;
20713;SDS011;10518;50.742;4.226;2022-10-16T10:24:59;2.60;;;0.73;;
20713;SDS011;10518;50.742;4.226;2022-10-16T10:33:24;1.17;;;0.65;;
20713;SDS011;10518;50.742;4.226;2022-10-16T10:41:21;1.45;;;0.60;;
20713;SDS011;10518;50.742;4.226;2022-10-16T10:44:11;2.55;;;0.60;;
20713;SDS011;10518;50.742;4.226;2022-10-16T10:46:51;1.00;;;0.65;;
20713;SDS011;10518;50.742;4.226;2022-10-16T10:57:23;0.65;;;0.50;;
20713;SDS011;10518;50.742;4.226;2022-10-16T11:08:06;0.70;;;0.47;;
20713;SDS011;10518;50.742;4.226;2022-10-16T11:16:30;0.55;;;0.50;;
20713;SDS011;10518;50.742;4.226;2022-10-16T11:19:03;2.40;;;0.75;;
20713;SDS011;10518;50.742;4.226;2022-10-16T11:21:50;0.75;;;0.50;;
20713;SDS011;10518;50.742;4.226;2022-10-16T11:24:41;1.05;;;0.60;;
20713;SDS011;10518;50.742;4.226;2022-10-16T11:27:15;0.65;;;0.40;;
20713;SDS011;10518;50.742;4.226;2022-10-16T11:29:46;1.10;;;0.60;;
20713;SDS011;10518;50.742;4.226;2022-10-16T11:32:20;0.82;;;0.45;;
20713;SDS011;10518;50.742;4.226;2022-10-16T11:35:11;1.10;;;0.45;;
20713;SDS011;10518;50.742;4.226;2022-10-16T11:37:48;0.95;;;0.65;;
20713;SDS011;10518;50.742;4.226;2022-10-16T11:40:19;0.80;;;0.40;;
20713;SDS011;10518;50.742;4.226;2022-10-16T11:43:32;1.52;;;0.50;;
20713;SDS011;10518;50.742;4.226;2022-10-16T11:45:41;1.13;;;0.45;;
20713;SDS011;10518;50.742;4.226;2022-10-16T11:48:22;1.42;;;0.73;;
20713;SDS011;10518;50.742;4.226;2022-10-16T11:50:57;0.40;;;0.40;;
20713;SDS011;10518;50.742;4.226;2022-10-16T11:53:44;0.73;;;0.50;;
20713;SDS011;10518;50.742;4.226;2022-10-16T11:56:19;0.35;;;0.35;;
20713;SDS011;10518;50.742;4.226;2022-10-16T11:58:51;1.33;;;0.60;;
20713;SDS011;10518;50.742;4.226;2022-10-16T12:01:28;0.40;;;0.40;;
20713;SDS011;10518;50.742;4.226;2022-10-16T12:04:03;1.85;;;0.47;;
20713;SDS011;10518;50.742;4.226;2022-10-16T12:11:54;0.40;;;0.40;;
20713;SDS011;10518;50.742;4.226;2022-10-16T12:14:41;1.25;;;0.50;;
20713;SDS011;10518;50.742;4.226;2022-10-16T12:17:26;0.70;;;0.38;;
20713;SDS011;10518;50.742;4.226;2022-10-16T12:22:40;0.52;;;0.50;;
20713;SDS011;10518;50.742;4.226;2022-10-16T12:27:53;0.70;;;0.30;;
20713;SDS011;10518;50.742;4.226;2022-10-16T12:30:28;2.08;;;0.43;;
20713;SDS011;10518;50.742;4.226;2022-10-16T12:32:56;0.60;;;0.32;;
20713;SDS011;10518;50.742;4.226;2022-10-16T12:35:26;1.30;;;0.55;;
20713;SDS011;10518;50.742;4.226;2022-10-16T12:38:04;0.55;;;0.50;;
20713;SDS011;10518;50.742;4.226;2022-10-16T12:40:32;3.50;;;0.60;;
20713;SDS011;10518;50.742;4.226;2022-10-16T12:44:02;0.68;;;0.40;;
20713;SDS011;10518;50.742;4.226;2022-10-16T12:51:39;2.70;;;0.40;;
20713;SDS011;10518;50.742;4.226;2022-10-16T12:54:12;0.50;;;0.40;;
20713;SDS011;10518;50.742;4.226;2022-10-16T13:07:37;1.52;;;0.65;;
20713;SDS011;10518;50.742;4.226;2022-10-16T13:10:28;4.68;;;0.57;;
20713;SDS011;10518;50.742;4.226;2022-10-16T13:13:21;0.50;;;0.50;;
20713;SDS011;10518;50.742;4.226;2022-10-16T13:21:56;0.40;;;0.40;;
20713;SDS011;10518;50.742;4.226;2022-10-16T13:24:17;2.47;;;1.00;;
20713;SDS011;10518;50.742;4.226;2022-10-16T13:27:15;5.65;;;0.60;;
20713;SDS011;10518;50.742;4.226;2022-10-16T13:29:48;0.98;;;0.60;;
20713;SDS011;10518;50.742;4.226;2022-10-16T13:32:20;1.58;;;0.95;;
20713;SDS011;10518;50.742;4.226;2022-10-16T13:34:47;0.70;;;0.47;;
20713;SDS011;10518;50.742;4.226;2022-10-16T13:37:21;1.17;;;0.60;;
20713;SDS011;10518;50.742;4.226;2022-10-16T13:39:48;3.33;;;0.77;;
20713;SDS011;10518;50.742;4.226;2022-10-16T13:42:26;0.93;;;0.50;;
20713;SDS011;10518;50.742;4.226;2022-10-16T13:44:53;0.70;;;0.50;;
20713;SDS011;10518;50.742;4.226;2022-10-16T13:50:03;0.95;;;0.45;;
20713;SDS011;10518;50.742;4.226;2022-10-16T13:52:37;0.40;;;0.40;;
20713;SDS011;10518;50.742;4.226;2022-10-16T13:55:03;0.63;;;0.40;;
20713;SDS011;10518;50.742;4.226;2022-10-16T13:57:35;1.63;;;0.47;;
20713;SDS011;10518;50.742;4.226;2022-10-16T14:00:00;3.58;;;0.50;;
20713;SDS011;10518;50.742;4.226;2022-10-16T14:02:27;0.93;;;0.60;;
20713;SDS011;10518;50.742;4.226;2022-10-16T14:04:59;0.68;;;0.50;;
20713;SDS011;10518;50.742;4.226;2022-10-16T14:07:31;0.40;;;0.40;;
20713;SDS011;10518;50.742;4.226;2022-10-16T14:10:18;0.32;;;0.32;;
20713;SDS011;10518;50.742;4.226;2022-10-16T14:12:53;1.65;;;0.50;;
20713;SDS011;10518;50.742;4.226;2022-10-16T14:15:20;0.45;;;0.40;;
20713;SDS011;10518;50.742;4.226;2022-10-16T14:17:48;0.55;;;0.50;;
20713;SDS011;10518;50.742;4.226;2022-10-16T14:20:15;1.92;;;0.40;;
20713;SDS011;10518;50.742;4.226;2022-10-16T14:22:41;1.40;;;0.40;;
20713;SDS011;10518;50.742;4.226;2022-10-16T14:25:21;0.90;;;0.50;;
20713;SDS011;10518;50.742;4.226;2022-10-16T14:30:34;2.58;;;0.70;;
20713;SDS011;10518;50.742;4.226;2022-10-16T14:35:33;0.45;;;0.30;;
20713;SDS011;10518;50.742;4.226;2022-10-16T14:38:01;0.70;;;0.47;;
20713;SDS011;10518;50.742;4.226;2022-10-16T14:40:29;1.02;;;0.43;;
20713;SDS011;10518;50.742;4.226;2022-10-16T14:43:00;4.70;;;1.02;;
20713;SDS011;10518;50.742;4.226;2022-10-16T14:45:28;2.58;;;0.73;;
20713;SDS011;10518;50.742;4.226;2022-10-16T14:47:57;0.52;;;0.40;;
20713;SDS011;10518;50.742;4.226;2022-10-16T14:50:28;0.22;;;0.22;;
20713;SDS011;10518;50.742;4.226;2022-10-16T14:52:54;0.45;;;0.40;;
20713;SDS011;10518;50.742;4.226;2022-10-16T14:55:20;1.55;;;0.50;;
20713;SDS011;10518;50.742;4.226;2022-10-16T14:57:46;0.40;;;0.40;;
20713;SDS011;10518;50.742;4.226;2022-10-16T15:00:16;0.40;;;0.40;;
20713;SDS011;10518;50.742;4.226;2022-10-16T15:02:44;0.90;;;0.52;;
20713;SDS011;10518;50.742;4.226;2022-10-16T15:05:18;1.25;;;0.50;;
20713;SDS011;10518;50.742;4.226;2022-10-16T15:07:46;3.47;;;0.45;;
20713;SDS011;10518;50.742;4.226;2022-10-16T15:10:13;0.50;;;0.50;;
20713;SDS011;10518;50.742;4.226;2022-10-16T15:12:40;0.82;;;0.50;;
20713;SDS011;10518;50.742;4.226;2022-10-16T15:15:48;0.95;;;0.57;;
20713;SDS011;10518;50.742;4.226;2022-10-16T15:17:59;0.50;;;0.50;;
20713;SDS011;10518;50.742;4.226;2022-10-16T15:20:29;0.98;;;0.73;;
20713;SDS011;10518;50.742;4.226;2022-10-16T15:22:58;2.05;;;0.40;;
20713;SDS011;10518;50.742;4.226;2022-10-16T15:25:36;0.50;;;0.50;;
20713;SDS011;10518;50.742;4.226;2022-10-16T15:28:04;0.75;;;0.50;;
20713;SDS011;10518;50.742;4.226;2022-10-16T15:30:31;0.45;;;0.40;;
20713;SDS011;10518;50.742;4.226;2022-10-16T15:32:57;0.70;;;0.60;;
20713;SDS011;10518;50.742;4.226;2022-10-16T15:35:23;1.05;;;0.52;;
20713;SDS011;10518;50.742;4.226;2022-10-16T15:37:49;0.85;;;0.75;;
20713;SDS011;10518;50.742;4.226;2022-10-16T15:40:15;1.50;;;1.05;;
20713;SDS011;10518;50.742;4.226;2022-10-16T15:42:42;3.00;;;1.42;;
20713;SDS011;10518;50.742;4.226;2022-10-16T15:45:08;3.20;;;1.48;;
20713;SDS011;10518;50.742;4.226;2022-10-16T15:47:34;3.33;;;1.23;;
20713;SDS011;10518;50.742;4.226;2022-10-16T15:50:00;1.75;;;1.10;;
20713;SDS011;10518;50.742;4.226;2022-10-16T15:52:26;1.92;;;1.02;;
20713;SDS011;10518;50.742;4.226;2022-10-16T15:54:53;2.70;;;1.55;;
20713;SDS011;10518;50.742;4.226;2022-10-16T15:57:19;2.47;;;1.17;;
20713;SDS011;10518;50.742;4.226;2022-10-16T15:59:44;1.90;;;0.63;;
20713;SDS011;10518;50.742;4.226;2022-10-16T16:02:10;0.40;;;0.40;;
20713;SDS011;10518;50.742;4.226;2022-10-16T16:04:36;1.00;;;0.60;;
20713;SDS011;10518;50.742;4.226;2022-10-16T16:07:02;0.95;;;0.60;;
20713;SDS011;10518;50.742;4.226;2022-10-16T16:09:30;2.38;;;0.68;;
20713;SDS011;10518;50.742;4.226;2022-10-16T16:11:56;0.50;;;0.50;;
20713;SDS011;10518;50.742;4.226;2022-10-16T16:14:24;0.80;;;0.45;;
20713;SDS011;10518;50.742;4.226;2022-10-16T16:16:51;0.63;;;0.50;;
20713;SDS011;10518;50.742;4.226;2022-10-16T16:19:16;0.68;;;0.60;;
20713;SDS011;10518;50.742;4.226;2022-10-16T16:21:45;1.90;;;0.88;;
20713;SDS011;10518;50.742;4.226;2022-10-16T16:24:11;1.27;;;1.02;;
20713;SDS011;10518;50.742;4.226;2022-10-16T16:26:37;1.98;;;1.10;;
20713;SDS011;10518;50.742;4.226;2022-10-16T16:29:05;1.80;;;1.20;;
20713;SDS011;10518;50.742;4.226;2022-10-16T16:31:31;1.52;;;1.00;;
20713;SDS011;10518;50.742;4.226;2022-10-16T16:33:57;2.60;;;1.30;;
20713;SDS011;10518;50.742;4.226;2022-10-16T16:36:23;2.08;;;1.30;;
20713;SDS011;10518;50.742;4.226;2022-10-16T16:38:49;5.72;;;1.10;;
20713;SDS011;10518;50.742;4.226;2022-10-16T16:41:16;0.85;;;0.65;;
20713;SDS011;10518;50.742;4.226;2022-10-16T16:43:43;1.00;;;0.90;;
20713;SDS011;10518;50.742;4.226;2022-10-16T16:46:09;1.60;;;0.95;;
20713;SDS011;10518;50.742;4.226;2022-10-16T16:48:35;1.50;;;1.00;;
20713;SDS011;10518;50.742;4.226;2022-10-16T16:51:02;1.10;;;0.90;;
20713;SDS011;10518;50.742;4.226;2022-10-16T16:53:35;3.03;;;1.45;;
20713;SDS011;10518;50.742;4.226;2022-10-16T16:56:02;10.48;;;7.38;;
20713;SDS011;10518;50.742;4.226;2022-10-16T16:58:29;8.05;;;4.07;;
20713;SDS011;10518;50.742;4.226;2022-10-16T17:00:54;4.20;;;2.88;;
20713;SDS011;10518;50.742;4.226;2022-10-16T17:03:20;3.75;;;2.20;;
20713;SDS011;10518;50.742;4.226;2022-10-16T17:06:07;4.13;;;1.77;;
20713;SDS011;10518;50.742;4.226;2022-10-16T17:08:35;2.90;;;1.60;;